createdAt,value
2022-12-23T00:01:25.685Z,230.85
2022-12-23T00:03:53.291Z,229.13
2022-12-23T00:06:21.813Z,224.05
2022-12-23T00:08:50.315Z,224.93
2022-12-23T00:11:20.063Z,222.35
2022-12-23T00:14:06.392Z,197.30
2022-12-23T00:16:36.758Z,215.57
2022-12-23T00:19:04.493Z,228.85
2022-12-23T00:21:32.071Z,203.13
2022-12-23T00:23:59.377Z,200.98
2022-12-23T00:26:28.103Z,193.02
2022-12-23T00:28:59.085Z,201.98
2022-12-23T00:31:26.724Z,204.15
2022-12-23T00:33:54.486Z,204.25
2022-12-23T00:36:25.418Z,204.27
2022-12-23T00:39:11.110Z,210.30
2022-12-23T00:41:59.185Z,200.95
2022-12-23T00:44:27.972Z,203.65
2022-12-23T00:46:55.486Z,262.25
2022-12-23T00:49:41.308Z,238.38
2022-12-23T00:52:11.783Z,218.40
2022-12-23T00:54:39.424Z,208.60
2022-12-23T00:57:07.802Z,215.55
2022-12-23T00:59:35.026Z,231.13
2022-12-23T01:02:21.757Z,230.15
2022-12-23T01:05:08.857Z,226.55
2022-12-23T01:07:36.362Z,232.52
2022-12-23T01:10:05.271Z,236.13
2022-12-23T01:12:32.619Z,238.32
2022-12-23T01:15:01.295Z,228.75
2022-12-23T01:17:28.855Z,240.98
2022-12-23T01:19:56.510Z,245.38
2022-12-23T01:22:23.936Z,229.35
2022-12-23T01:24:51.216Z,200.48
2022-12-23T01:27:22.696Z,199.20
2022-12-23T01:29:49.808Z,195.77
2022-12-23T01:32:17.326Z,194.80
2022-12-23T01:34:44.521Z,184.38
2022-12-23T01:37:11.881Z,196.55
2022-12-23T01:39:39.013Z,198.77
2022-12-23T01:42:32.694Z,200.05
2022-12-23T01:45:01.638Z,197.73
2022-12-23T01:47:29.275Z,191.95
2022-12-23T01:50:21.381Z,205.88
2022-12-23T01:53:07.802Z,202.82
2022-12-23T01:55:56.665Z,204.77
2022-12-23T01:58:32.113Z,206.52
2022-12-23T02:01:18.419Z,219.68
2022-12-23T02:03:47.048Z,211.00
2022-12-23T02:06:38.507Z,200.02
2022-12-23T02:09:28.544Z,217.43
2022-12-23T02:12:09.629Z,190.63
2022-12-23T02:15:21.011Z,161.75
2022-12-23T02:17:48.119Z,149.30
2022-12-23T02:20:51.823Z,98.75
2022-12-23T02:23:50.512Z,70.25
2022-12-23T02:26:26.846Z,63.50
2022-12-23T02:29:18.837Z,70.07
2022-12-23T02:32:41.687Z,64.43
2022-12-23T02:35:27.564Z,56.38
2022-12-23T02:38:16.025Z,49.75
2022-12-23T02:41:17.598Z,47.38
2022-12-23T02:43:57.119Z,46.88
2022-12-23T02:46:46.361Z,48.83
2022-12-23T02:49:25.806Z,49.65
2022-12-23T02:51:57.403Z,54.00
2022-12-23T02:54:52.729Z,58.83
2022-12-23T02:57:29.476Z,61.58
2022-12-23T02:59:57.868Z,65.35
2022-12-23T03:02:25.298Z,64.80
2022-12-23T03:04:53.183Z,65.95
2022-12-23T03:07:30.784Z,64.13
2022-12-23T03:10:19.844Z,66.25
2022-12-23T03:12:58.135Z,65.05
2022-12-23T03:15:39.113Z,65.85
2022-12-23T03:18:06.334Z,66.65
2022-12-23T03:20:38.196Z,65.43
2022-12-23T03:23:14.975Z,72.35
2022-12-23T03:25:53.637Z,71.75
2022-12-23T03:28:31.271Z,63.45
2022-12-23T03:31:03.762Z,66.72
2022-12-23T03:33:41.538Z,57.78
2022-12-23T03:36:25.598Z,54.70
2022-12-23T03:38:55.064Z,52.88
2022-12-23T03:41:30.513Z,59.10
2022-12-23T03:44:13.765Z,74.03
2022-12-23T03:46:49.359Z,72.18
2022-12-23T03:49:24.862Z,59.58
2022-12-23T03:52:03.436Z,51.35
2022-12-23T03:54:39.920Z,46.70
2022-12-23T03:57:09.892Z,40.22
2022-12-23T03:59:41.248Z,40.70
2022-12-23T04:02:33.117Z,42.45
2022-12-23T04:05:19.926Z,38.78
2022-12-23T04:08:00.289Z,39.28
2022-12-23T04:10:28.288Z,37.63
2022-12-23T04:12:56.034Z,39.60
2022-12-23T04:15:25.462Z,43.05
2022-12-23T04:17:54.776Z,43.72
2022-12-23T04:20:22.478Z,44.55
2022-12-23T04:22:50.792Z,51.55
2022-12-23T04:25:18.270Z,51.78
2022-12-23T04:27:45.810Z,35.92
2022-12-23T04:30:14.062Z,44.22
2022-12-23T04:32:42.887Z,37.33
2022-12-23T04:35:12.346Z,38.20
2022-12-23T04:37:39.784Z,40.17
2022-12-23T04:40:09.607Z,38.72
2022-12-23T04:42:37.162Z,38.97
2022-12-23T04:45:04.764Z,30.30
2022-12-23T04:47:32.180Z,40.13
2022-12-23T04:49:59.227Z,35.78
2022-12-23T04:52:27.158Z,38.92
2022-12-23T04:54:54.396Z,35.10
2022-12-23T04:57:21.875Z,30.90
2022-12-23T04:59:51.290Z,34.03
2022-12-23T05:02:18.857Z,23.40
2022-12-23T05:04:46.322Z,25.70
2022-12-23T05:07:13.735Z,26.15
2022-12-23T05:09:40.843Z,27.38
2022-12-23T05:12:08.662Z,26.63
2022-12-23T05:14:35.820Z,26.83
2022-12-23T05:17:07.460Z,21.88
2022-12-23T05:19:35.376Z,18.92
2022-12-23T05:22:03.825Z,20.17
2022-12-23T05:24:32.075Z,22.80
2022-12-23T05:27:00.540Z,22.10
2022-12-23T05:29:29.073Z,21.08
2022-12-23T05:31:56.722Z,21.42
2022-12-23T05:34:25.472Z,19.40
2022-12-23T05:36:52.974Z,20.23
2022-12-23T05:39:20.456Z,20.80
2022-12-23T05:41:50.028Z,22.25
2022-12-23T05:44:17.268Z,21.13
2022-12-23T05:46:44.666Z,20.92
2022-12-23T05:49:11.872Z,34.33
2022-12-23T05:51:42.236Z,54.95
2022-12-23T05:54:09.378Z,63.72
2022-12-23T05:56:36.947Z,60.35
2022-12-23T05:59:04.086Z,59.40
2022-12-23T06:01:31.646Z,59.67
2022-12-23T06:03:59.295Z,63.85
2022-12-23T06:06:27.033Z,65.30
2022-12-23T06:08:59.354Z,68.75
2022-12-23T06:11:28.383Z,93.32
2022-12-23T06:13:55.570Z,207.82
2022-12-23T06:16:23.489Z,167.30
2022-12-23T06:18:55.101Z,73.60
2022-12-23T06:21:23.822Z,43.05
2022-12-23T06:23:51.630Z,31.90
2022-12-23T06:26:19.349Z,42.75
2022-12-23T06:28:46.665Z,38.80
2022-12-23T06:31:14.189Z,38.40
2022-12-23T06:33:41.441Z,42.40
2022-12-23T06:36:09.340Z,44.40
2022-12-23T06:38:36.531Z,45.40
2022-12-23T06:41:04.119Z,43.10
2022-12-23T06:43:31.206Z,53.50
2022-12-23T06:45:58.635Z,33.65
2022-12-23T06:48:28.154Z,37.72
2022-12-23T06:50:55.724Z,64.05
2022-12-23T06:53:23.010Z,57.13
2022-12-23T06:55:50.433Z,45.22
2022-12-23T06:58:17.608Z,38.95
2022-12-23T07:00:45.222Z,40.72
2022-12-23T07:03:13.534Z,41.90
2022-12-23T07:05:41.025Z,38.28
2022-12-23T07:08:08.104Z,34.83
2022-12-23T07:10:37.661Z,38.63
2022-12-23T07:13:04.841Z,35.33
2022-12-23T07:15:32.272Z,31.65
2022-12-23T07:17:59.430Z,31.42
2022-12-23T07:20:27.722Z,34.63
2022-12-23T07:22:55.775Z,34.10
2022-12-23T07:25:24.335Z,31.45
2022-12-23T07:27:55.318Z,29.25
2022-12-23T07:30:24.433Z,31.00
2022-12-23T07:32:52.102Z,27.58
2022-12-23T07:35:19.721Z,25.85
2022-12-23T07:37:55.629Z,23.55
2022-12-23T07:40:24.869Z,25.40
2022-12-23T07:42:58.354Z,25.17
2022-12-23T07:45:28.806Z,25.20
2022-12-23T07:47:59.408Z,42.38
2022-12-23T07:50:27.390Z,77.03
2022-12-23T07:52:55.012Z,39.28
2022-12-23T07:55:23.533Z,30.38
2022-12-23T07:57:52.344Z,29.60
2022-12-23T08:00:22.611Z,31.92
2022-12-23T08:02:50.043Z,51.20
2022-12-23T08:05:18.833Z,54.33
2022-12-23T08:07:46.334Z,36.55
2022-12-23T08:10:13.796Z,43.30
2022-12-23T08:12:41.830Z,44.95
2022-12-23T08:15:09.692Z,33.53
2022-12-23T08:17:36.784Z,21.65
2022-12-23T08:20:07.416Z,24.52
2022-12-23T08:22:34.874Z,36.38
2022-12-23T08:25:02.373Z,28.95
2022-12-23T08:27:29.489Z,25.45
2022-12-23T08:29:56.933Z,31.77
2022-12-23T08:32:27.283Z,25.45
2022-12-23T08:34:57.419Z,26.60
2022-12-23T08:37:25.097Z,31.05
2022-12-23T08:39:52.625Z,25.67
2022-12-23T08:42:21.765Z,30.65
2022-12-23T08:44:49.874Z,30.88
2022-12-23T08:47:17.011Z,21.30
2022-12-23T08:49:45.671Z,17.25
2022-12-23T08:52:12.954Z,17.20
2022-12-23T08:54:40.361Z,18.55
2022-12-23T08:57:07.472Z,20.15
2022-12-23T08:59:34.916Z,23.05
2022-12-23T09:02:03.690Z,19.40
2022-12-23T09:04:36.146Z,22.88
2022-12-23T09:07:03.322Z,18.40
2022-12-23T09:09:30.714Z,19.10
2022-12-23T09:11:58.071Z,18.95
2022-12-23T09:14:25.569Z,19.98
2022-12-23T09:16:52.728Z,19.88
2022-12-23T09:19:20.528Z,23.65
2022-12-23T09:21:47.945Z,20.48
2022-12-23T09:24:17.343Z,20.25
2022-12-23T09:26:44.496Z,18.88
2022-12-23T09:29:11.924Z,20.23
2022-12-23T09:31:39.170Z,22.20
2022-12-23T09:34:06.839Z,20.67
2022-12-23T09:36:34.383Z,19.58
2022-12-23T09:39:01.768Z,20.83
2022-12-23T09:41:48.553Z,19.48
2022-12-23T09:44:49.638Z,22.27
2022-12-23T09:47:20.889Z,25.48
2022-12-23T09:50:00.594Z,21.48
2022-12-23T09:52:53.971Z,18.15
2022-12-23T09:55:28.428Z,19.58
2022-12-23T09:58:03.280Z,22.00
2022-12-23T10:00:39.854Z,19.75
2022-12-23T10:03:07.190Z,23.55
2022-12-23T10:05:54.687Z,18.67
2022-12-23T10:08:34.043Z,16.58
2022-12-23T10:11:18.266Z,18.60
2022-12-23T10:13:58.476Z,16.42
2022-12-23T10:16:30.366Z,14.35
2022-12-23T10:19:05.627Z,13.45
2022-12-23T10:21:50.818Z,15.68
2022-12-23T10:24:28.653Z,16.17
2022-12-23T10:27:15.290Z,20.67
2022-12-23T10:29:42.721Z,20.25
2022-12-23T10:32:29.262Z,18.98
2022-12-23T10:35:08.540Z,23.88
2022-12-23T10:37:45.690Z,17.70
2022-12-23T10:40:23.367Z,16.02
2022-12-23T10:43:09.444Z,21.38
2022-12-23T10:45:56.412Z,19.13
2022-12-23T10:49:01.906Z,27.45
2022-12-23T10:51:30.968Z,30.60
2022-12-23T10:54:10.175Z,17.15
2022-12-23T10:56:37.779Z,16.42
2022-12-23T10:59:07.071Z,18.73
2022-12-23T11:01:34.975Z,17.52
2022-12-23T11:04:10.240Z,20.88
2022-12-23T11:06:41.373Z,14.98
2022-12-23T11:09:37.966Z,15.07
2022-12-23T11:12:08.251Z,17.05
2022-12-23T11:14:35.728Z,15.27
2022-12-23T11:17:05.734Z,17.27
2022-12-23T11:19:33.245Z,16.92
2022-12-23T11:22:02.168Z,14.40
2022-12-23T11:24:39.583Z,11.15
2022-12-23T11:27:16.117Z,13.00
2022-12-23T11:29:55.103Z,13.90
2022-12-23T11:32:26.208Z,30.42
2022-12-23T11:35:00.458Z,34.13
2022-12-23T11:37:38.040Z,67.38
2022-12-23T11:40:35.411Z,48.55
2022-12-23T11:43:06.772Z,44.50
2022-12-23T11:45:37.160Z,29.45
2022-12-23T11:48:06.296Z,19.80
2022-12-23T11:50:41.181Z,28.58
2022-12-23T11:53:22.998Z,29.90
2022-12-23T11:56:09.988Z,22.83
2022-12-23T11:58:50.857Z,26.85
2022-12-23T12:01:21.441Z,8.82
2022-12-23T12:03:55.049Z,9.07
2022-12-23T12:06:23.725Z,8.48
2022-12-23T12:08:52.964Z,8.23
2022-12-23T12:11:45.372Z,8.10
2022-12-23T12:14:41.825Z,10.60
2022-12-23T12:17:39.613Z,8.40
2022-12-23T12:20:25.651Z,10.15
2022-12-23T12:23:02.425Z,9.73
2022-12-23T12:25:42.003Z,10.75
2022-12-23T12:28:18.751Z,10.25
2022-12-23T12:31:21.568Z,10.15
2022-12-23T12:33:53.441Z,9.25
2022-12-23T12:36:39.331Z,7.22
2022-12-23T12:39:16.638Z,9.13
2022-12-23T12:42:05.518Z,6.90
2022-12-23T12:44:41.783Z,10.40
2022-12-23T12:47:52.205Z,14.77
2022-12-23T12:50:20.378Z,7.70
2022-12-23T12:52:47.836Z,8.57
2022-12-23T12:55:21.559Z,6.57
2022-12-23T12:57:48.850Z,12.73
2022-12-23T13:00:19.512Z,8.98
2022-12-23T13:03:07.824Z,6.97
2022-12-23T13:06:00.203Z,11.32
2022-12-23T13:08:36.785Z,10.05
2022-12-23T13:11:26.431Z,6.10
2022-12-23T13:14:19.601Z,7.10
2022-12-23T13:17:13.563Z,5.47
2022-12-23T13:19:59.627Z,5.22
2022-12-23T13:22:34.364Z,17.52
2022-12-23T13:25:14.734Z,31.00
2022-12-23T13:28:06.257Z,7.60
2022-12-23T13:30:42.902Z,8.88
2022-12-23T13:33:20.321Z,10.27
2022-12-23T13:35:51.326Z,11.60
2022-12-23T13:38:38.236Z,13.13
2022-12-23T13:41:23.679Z,10.68
2022-12-23T13:44:10.898Z,9.75
2022-12-23T13:46:58.254Z,7.35
2022-12-23T13:49:44.110Z,16.90
2022-12-23T13:52:56.977Z,7.82
2022-12-23T13:56:02.410Z,48.17
2022-12-23T13:58:33.307Z,65.50
2022-12-23T14:01:11.897Z,61.35
2022-12-23T14:03:40.331Z,64.40
2022-12-23T14:06:26.311Z,60.53
2022-12-23T14:08:55.238Z,53.75
2022-12-23T14:11:27.569Z,52.15
2022-12-23T14:14:01.866Z,61.25
2022-12-23T14:16:57.959Z,55.95
2022-12-23T14:19:55.485Z,54.28
2022-12-23T14:22:49.022Z,53.65
2022-12-23T14:25:37.839Z,54.97
2022-12-23T14:28:06.581Z,60.50
2022-12-23T14:30:45.074Z,54.85
2022-12-23T14:33:27.973Z,62.97
2022-12-23T14:36:15.503Z,61.83
2022-12-23T14:38:43.140Z,62.03
2022-12-23T14:41:19.575Z,76.90
2022-12-23T14:43:47.092Z,68.32
2022-12-23T14:46:36.354Z,67.55
2022-12-23T14:49:40.933Z,124.85
2022-12-23T14:52:44.462Z,80.22
2022-12-23T14:55:31.323Z,78.82
2022-12-23T14:58:28.339Z,73.03
2022-12-23T15:01:11.934Z,83.60
2022-12-23T15:03:47.008Z,82.43
2022-12-23T15:06:30.952Z,174.13
2022-12-23T15:08:59.068Z,244.07
2022-12-23T15:11:29.337Z,236.75
2022-12-23T15:14:00.239Z,261.33
2022-12-23T15:16:37.382Z,217.85
2022-12-23T15:19:33.543Z,89.50
2022-12-23T15:22:20.760Z,77.65
2022-12-23T15:24:51.437Z,171.10
2022-12-23T15:27:29.413Z,70.93
2022-12-23T15:29:58.331Z,55.80
2022-12-23T15:32:28.119Z,54.42
2022-12-23T15:35:05.205Z,54.17
2022-12-23T15:37:33.668Z,65.95
2022-12-23T15:40:11.471Z,70.03
2022-12-23T15:42:59.831Z,78.93
2022-12-23T15:45:41.653Z,71.45
2022-12-23T15:48:29.663Z,70.72
2022-12-23T15:51:01.325Z,67.72
2022-12-23T15:53:33.656Z,70.97
2022-12-23T15:56:06.859Z,70.68
2022-12-23T15:58:35.708Z,62.55
2022-12-23T16:01:03.339Z,68.32
2022-12-23T16:03:38.987Z,66.38
2022-12-23T16:06:24.377Z,70.15
2022-12-23T16:09:02.404Z,83.38
2022-12-23T16:11:48.072Z,137.43
2022-12-23T16:14:30.991Z,185.00
2022-12-23T16:17:13.667Z,158.75
2022-12-23T16:19:52.883Z,114.25
2022-12-23T16:22:29.920Z,131.90
2022-12-23T16:25:12.553Z,127.43
2022-12-23T16:27:45.627Z,157.02
2022-12-23T16:30:17.882Z,136.95
2022-12-23T16:32:58.889Z,168.43
2022-12-23T16:35:36.793Z,155.18
2022-12-23T16:38:18.145Z,231.85
2022-12-23T16:40:52.904Z,187.27
2022-12-23T16:43:22.363Z,176.68
2022-12-23T16:45:56.151Z,173.90
2022-12-23T16:48:35.962Z,202.48
2022-12-23T16:51:07.479Z,218.35
2022-12-23T16:53:34.652Z,211.55
2022-12-23T16:56:02.666Z,119.72
2022-12-23T16:58:30.132Z,127.18
2022-12-23T17:00:58.180Z,74.35
2022-12-23T17:03:26.025Z,80.13
2022-12-23T17:05:53.644Z,78.28
2022-12-23T17:08:20.815Z,64.90
2022-12-23T17:10:48.421Z,69.65
2022-12-23T17:13:18.853Z,73.05
2022-12-23T17:15:46.345Z,82.80
2022-12-23T17:18:16.312Z,70.47
2022-12-23T17:20:46.304Z,77.00
2022-12-23T17:23:32.604Z,78.90
2022-12-23T17:26:01.667Z,77.70
2022-12-23T17:28:32.814Z,80.70
2022-12-23T17:31:01.691Z,80.95
2022-12-23T17:33:33.876Z,83.15
2022-12-23T17:36:03.047Z,106.72
2022-12-23T17:38:30.211Z,91.28
2022-12-23T17:41:00.999Z,116.38
2022-12-23T17:43:28.438Z,95.35
2022-12-23T17:45:56.150Z,81.25
2022-12-23T17:48:32.027Z,84.25
2022-12-23T17:51:03.536Z,94.00
2022-12-23T17:53:33.640Z,78.85
2022-12-23T17:56:05.753Z,78.22
2022-12-23T17:58:34.442Z,71.85
2022-12-23T18:01:02.829Z,66.35
2022-12-23T18:03:30.196Z,88.35
2022-12-23T18:06:02.108Z,101.22
2022-12-23T18:08:57.490Z,91.53
2022-12-23T18:11:39.752Z,68.97
2022-12-23T18:14:14.729Z,87.45
2022-12-23T18:16:43.382Z,72.03
2022-12-23T18:19:21.884Z,92.72
2022-12-23T18:21:51.692Z,107.00
2022-12-23T18:24:19.527Z,83.18
2022-12-23T18:26:50.839Z,135.88
2022-12-23T18:29:19.200Z,150.57
2022-12-23T18:31:52.083Z,139.82
2022-12-23T18:34:21.183Z,144.93
2022-12-23T18:36:49.143Z,145.70
2022-12-23T18:39:19.011Z,142.38
2022-12-23T18:41:46.780Z,83.53
2022-12-23T18:44:21.749Z,147.40
2022-12-23T18:46:52.369Z,118.18
2022-12-23T18:49:47.855Z,102.10
2022-12-23T18:52:23.164Z,76.38
2022-12-23T18:54:54.319Z,69.82
2022-12-23T18:57:23.374Z,68.05
2022-12-23T18:59:50.615Z,62.78
2022-12-23T19:02:18.903Z,61.13
2022-12-23T19:04:46.357Z,55.63
2022-12-23T19:07:14.616Z,52.58
2022-12-23T19:09:43.230Z,51.17
2022-12-23T19:12:10.634Z,55.08
2022-12-23T19:14:39.431Z,64.05
2022-12-23T19:17:06.754Z,52.70
2022-12-23T19:19:34.221Z,47.45
2022-12-23T19:22:01.634Z,48.30
2022-12-23T19:24:30.007Z,43.97
2022-12-23T19:26:57.527Z,44.25
2022-12-23T19:29:25.947Z,64.95
2022-12-23T19:31:53.857Z,44.97
2022-12-23T19:34:20.960Z,42.92
2022-12-23T19:36:48.868Z,43.47
2022-12-23T19:39:17.244Z,48.80
2022-12-23T19:41:46.382Z,47.50
2022-12-23T19:44:15.032Z,44.40
2022-12-23T19:46:45.575Z,39.67
2022-12-23T19:49:19.592Z,41.00
2022-12-23T19:51:47.958Z,46.75
2022-12-23T19:54:15.507Z,61.08
2022-12-23T19:56:44.750Z,59.92
2022-12-23T19:59:12.731Z,60.67
2022-12-23T20:01:42.007Z,66.10
2022-12-23T20:04:11.966Z,60.08
2022-12-23T20:06:41.759Z,56.20
2022-12-23T20:09:12.034Z,136.40
2022-12-23T20:11:42.866Z,141.50
2022-12-23T20:14:11.517Z,114.68
2022-12-23T20:16:40.353Z,83.32
2022-12-23T20:19:08.185Z,55.15
2022-12-23T20:21:37.631Z,59.33
2022-12-23T20:24:06.808Z,58.80
2022-12-23T20:26:34.952Z,51.70
2022-12-23T20:29:03.236Z,72.13
2022-12-23T20:31:33.323Z,47.25
2022-12-23T20:34:01.990Z,42.40
2022-12-23T20:36:32.722Z,42.35
2022-12-23T20:39:00.420Z,47.30
2022-12-23T20:41:29.495Z,49.63
2022-12-23T20:44:32.239Z,52.50
2022-12-23T20:46:45.045Z,59.60
2022-12-23T20:49:12.466Z,48.42
2022-12-23T20:51:40.446Z,43.15
2022-12-23T20:54:08.881Z,53.50
2022-12-23T20:56:36.320Z,64.15
2022-12-23T20:59:04.024Z,50.38
2022-12-23T21:01:35.431Z,44.55
2022-12-23T21:04:05.861Z,46.33
2022-12-23T21:06:35.913Z,42.28
2022-12-23T21:09:05.862Z,45.03
2022-12-23T21:11:36.024Z,39.28
2022-12-23T21:14:06.821Z,43.97
2022-12-23T21:16:36.667Z,66.65
2022-12-23T21:19:07.525Z,57.58
2022-12-23T21:21:36.503Z,52.17
2022-12-23T21:24:05.171Z,45.22
2022-12-23T21:26:34.819Z,50.95
2022-12-23T21:29:04.182Z,62.00
2022-12-23T21:31:33.995Z,59.42
2022-12-23T21:34:02.130Z,53.38
2022-12-23T21:36:33.226Z,57.45
2022-12-23T21:39:01.275Z,44.50
2022-12-23T21:41:34.012Z,43.38
2022-12-23T21:44:01.248Z,50.67
2022-12-23T21:46:29.359Z,48.55
2022-12-23T21:48:58.942Z,48.53
2022-12-23T21:51:39.084Z,46.97
2022-12-23T21:54:08.064Z,45.08
2022-12-23T21:56:35.711Z,50.40
2022-12-23T21:59:11.511Z,49.78
2022-12-23T22:01:39.761Z,47.85
2022-12-23T22:04:09.513Z,51.53
2022-12-23T22:06:43.825Z,37.95
2022-12-23T22:09:19.764Z,36.93
2022-12-23T22:11:48.192Z,34.22
2022-12-23T22:14:17.461Z,29.10
2022-12-23T22:16:46.033Z,29.30
2022-12-23T22:19:13.277Z,30.05
2022-12-23T22:21:42.720Z,34.60
2022-12-23T22:24:11.082Z,30.80
2022-12-23T22:26:39.635Z,29.08
2022-12-23T22:29:07.518Z,26.00
2022-12-23T22:31:40.684Z,32.17
2022-12-23T22:34:11.018Z,31.17
2022-12-23T22:36:38.557Z,33.30
2022-12-23T22:39:07.779Z,33.45
2022-12-23T22:41:36.965Z,34.05
2022-12-23T22:44:05.932Z,32.75
2022-12-23T22:46:33.841Z,25.95
2022-12-23T22:49:01.115Z,22.67
2022-12-23T22:51:30.640Z,28.13
2022-12-23T22:53:58.640Z,29.15
2022-12-23T22:56:26.973Z,45.47
2022-12-23T22:58:55.241Z,52.95
2022-12-23T23:01:31.419Z,60.78
2022-12-23T23:04:02.401Z,63.13
2022-12-23T23:06:39.416Z,74.35
2022-12-23T23:09:08.313Z,61.35
2022-12-23T23:11:36.654Z,63.08
2022-12-23T23:14:04.671Z,58.47
2022-12-23T23:16:33.277Z,60.40
2022-12-23T23:19:00.628Z,82.13
2022-12-23T23:21:29.517Z,86.10
2022-12-23T23:23:57.366Z,73.95
2022-12-23T23:26:27.484Z,85.45
2022-12-23T23:28:55.282Z,124.22
2022-12-23T23:34:12.470Z,125.55
2022-12-23T23:36:40.125Z,108.88
2022-12-23T23:39:07.895Z,139.10
2022-12-23T23:41:35.971Z,82.45
2022-12-23T23:44:03.602Z,87.53
2022-12-23T23:46:33.008Z,70.88
2022-12-23T23:49:01.216Z,79.40
2022-12-23T23:51:29.504Z,77.35
2022-12-23T23:53:56.665Z,67.10
2022-12-23T23:56:27.281Z,82.50
2022-12-23T23:58:56.296Z,76.80
